sensor_id;sensor_type;location;lat;lon;timestamp;P1;durP1;ratioP1;P2;durP2;ratioP2
22778;SDS011;11556;51.194;3.800;2023-12-22T00:00:27;15.93;;;2.22;;
22778;SDS011;11556;51.194;3.800;2023-12-22T00:02:52;16.73;;;2.85;;
22778;SDS011;11556;51.194;3.800;2023-12-22T00:05:18;18.27;;;2.47;;
22778;SDS011;11556;51.194;3.800;2023-12-22T00:07:44;21.42;;;2.67;;
22778;SDS011;11556;51.194;3.800;2023-12-22T00:10:09;22.17;;;2.78;;
22778;SDS011;11556;51.194;3.800;2023-12-22T00:12:35;24.17;;;3.50;;
22778;SDS011;11556;51.194;3.800;2023-12-22T00:15:03;25.42;;;3.90;;
22778;SDS011;11556;51.194;3.800;2023-12-22T00:17:29;22.92;;;3.72;;
22778;SDS011;11556;51.194;3.800;2023-12-22T00:19:55;23.45;;;3.70;;
22778;SDS011;11556;51.194;3.800;2023-12-22T00:22:24;27.00;;;3.35;;
22778;SDS011;11556;51.194;3.800;2023-12-22T00:24:50;20.98;;;3.47;;
22778;SDS011;11556;51.194;3.800;2023-12-22T00:27:16;28.98;;;4.15;;
22778;SDS011;11556;51.194;3.800;2023-12-22T00:29:42;26.20;;;4.53;;
22778;SDS011;11556;51.194;3.800;2023-12-22T00:32:08;26.63;;;4.03;;
22778;SDS011;11556;51.194;3.800;2023-12-22T00:34:35;24.58;;;3.47;;
22778;SDS011;11556;51.194;3.800;2023-12-22T00:37:01;19.02;;;3.25;;
22778;SDS011;11556;51.194;3.800;2023-12-22T00:39:27;28.25;;;4.57;;
22778;SDS011;11556;51.194;3.800;2023-12-22T00:41:52;25.33;;;4.05;;
22778;SDS011;11556;51.194;3.800;2023-12-22T00:44:18;22.13;;;3.42;;
22778;SDS011;11556;51.194;3.800;2023-12-22T00:46:44;14.80;;;2.80;;
22778;SDS011;11556;51.194;3.800;2023-12-22T00:49:09;15.88;;;2.60;;
22778;SDS011;11556;51.194;3.800;2023-12-22T00:51:35;20.67;;;3.60;;
22778;SDS011;11556;51.194;3.800;2023-12-22T00:54:00;22.85;;;4.20;;
22778;SDS011;11556;51.194;3.800;2023-12-22T00:56:26;21.27;;;3.95;;
22778;SDS011;11556;51.194;3.800;2023-12-22T00:58:52;17.20;;;3.28;;
22778;SDS011;11556;51.194;3.800;2023-12-22T01:01:18;21.30;;;3.45;;
22778;SDS011;11556;51.194;3.800;2023-12-22T01:03:44;24.38;;;3.55;;
22778;SDS011;11556;51.194;3.800;2023-12-22T01:06:09;27.50;;;3.70;;
22778;SDS011;11556;51.194;3.800;2023-12-22T01:08:36;22.30;;;3.42;;
22778;SDS011;11556;51.194;3.800;2023-12-22T01:11:03;30.08;;;3.60;;
22778;SDS011;11556;51.194;3.800;2023-12-22T01:13:29;24.80;;;3.75;;
22778;SDS011;11556;51.194;3.800;2023-12-22T01:15:54;28.30;;;4.68;;
22778;SDS011;11556;51.194;3.800;2023-12-22T01:18:20;20.55;;;3.47;;
22778;SDS011;11556;51.194;3.800;2023-12-22T01:20:46;30.38;;;4.00;;
22778;SDS011;11556;51.194;3.800;2023-12-22T01:23:11;23.60;;;3.20;;
22778;SDS011;11556;51.194;3.800;2023-12-22T01:25:37;29.13;;;3.83;;
22778;SDS011;11556;51.194;3.800;2023-12-22T01:28:02;19.02;;;3.63;;
22778;SDS011;11556;51.194;3.800;2023-12-22T01:30:28;20.83;;;3.67;;
22778;SDS011;11556;51.194;3.800;2023-12-22T01:32:54;27.08;;;4.78;;
22778;SDS011;11556;51.194;3.800;2023-12-22T01:35:20;26.92;;;4.32;;
22778;SDS011;11556;51.194;3.800;2023-12-22T01:37:45;24.40;;;3.72;;
22778;SDS011;11556;51.194;3.800;2023-12-22T01:40:13;22.10;;;3.40;;
22778;SDS011;11556;51.194;3.800;2023-12-22T01:42:38;23.08;;;3.70;;
22778;SDS011;11556;51.194;3.800;2023-12-22T01:45:05;26.70;;;3.45;;
22778;SDS011;11556;51.194;3.800;2023-12-22T01:47:31;23.10;;;4.57;;
22778;SDS011;11556;51.194;3.800;2023-12-22T01:49:57;23.92;;;3.63;;
22778;SDS011;11556;51.194;3.800;2023-12-22T01:52:24;18.08;;;3.45;;
22778;SDS011;11556;51.194;3.800;2023-12-22T01:54:51;24.05;;;3.13;;
22778;SDS011;11556;51.194;3.800;2023-12-22T01:57:17;14.68;;;2.22;;
22778;SDS011;11556;51.194;3.800;2023-12-22T01:59:45;15.88;;;2.65;;
22778;SDS011;11556;51.194;3.800;2023-12-22T02:02:13;17.90;;;3.00;;
22778;SDS011;11556;51.194;3.800;2023-12-22T02:04:39;18.83;;;2.63;;
22778;SDS011;11556;51.194;3.800;2023-12-22T02:07:05;16.50;;;2.28;;
22778;SDS011;11556;51.194;3.800;2023-12-22T02:09:34;17.85;;;2.42;;
22778;SDS011;11556;51.194;3.800;2023-12-22T02:12:00;21.13;;;2.42;;
22778;SDS011;11556;51.194;3.800;2023-12-22T02:14:26;16.27;;;2.50;;
22778;SDS011;11556;51.194;3.800;2023-12-22T02:16:58;15.35;;;2.15;;
22778;SDS011;11556;51.194;3.800;2023-12-22T02:19:43;15.50;;;2.55;;
22778;SDS011;11556;51.194;3.800;2023-12-22T02:22:11;11.82;;;2.53;;
22778;SDS011;11556;51.194;3.800;2023-12-22T02:24:41;21.15;;;2.53;;
22778;SDS011;11556;51.194;3.800;2023-12-22T02:27:13;17.60;;;2.55;;
22778;SDS011;11556;51.194;3.800;2023-12-22T02:29:49;20.45;;;3.03;;
22778;SDS011;11556;51.194;3.800;2023-12-22T02:32:27;19.63;;;2.95;;
22778;SDS011;11556;51.194;3.800;2023-12-22T02:34:56;21.48;;;3.53;;
22778;SDS011;11556;51.194;3.800;2023-12-22T02:37:23;21.45;;;3.70;;
22778;SDS011;11556;51.194;3.800;2023-12-22T02:39:52;22.27;;;3.20;;
22778;SDS011;11556;51.194;3.800;2023-12-22T02:42:18;24.40;;;4.10;;
22778;SDS011;11556;51.194;3.800;2023-12-22T02:44:45;24.92;;;3.63;;
22778;SDS011;11556;51.194;3.800;2023-12-22T02:47:11;25.85;;;4.10;;
22778;SDS011;11556;51.194;3.800;2023-12-22T02:49:36;22.95;;;4.90;;
22778;SDS011;11556;51.194;3.800;2023-12-22T02:52:02;26.38;;;3.67;;
22778;SDS011;11556;51.194;3.800;2023-12-22T02:54:28;26.25;;;4.22;;
22778;SDS011;11556;51.194;3.800;2023-12-22T02:56:55;31.70;;;5.03;;
22778;SDS011;11556;51.194;3.800;2023-12-22T02:59:21;29.90;;;4.82;;
22778;SDS011;11556;51.194;3.800;2023-12-22T03:01:46;30.58;;;4.72;;
22778;SDS011;11556;51.194;3.800;2023-12-22T03:04:12;27.27;;;4.25;;
22778;SDS011;11556;51.194;3.800;2023-12-22T03:06:38;32.53;;;4.88;;
22778;SDS011;11556;51.194;3.800;2023-12-22T03:09:03;32.80;;;4.85;;
22778;SDS011;11556;51.194;3.800;2023-12-22T03:11:29;37.70;;;5.03;;
22778;SDS011;11556;51.194;3.800;2023-12-22T03:13:55;25.13;;;4.32;;
22778;SDS011;11556;51.194;3.800;2023-12-22T03:16:20;25.20;;;4.55;;
22778;SDS011;11556;51.194;3.800;2023-12-22T03:18:46;26.13;;;3.50;;
22778;SDS011;11556;51.194;3.800;2023-12-22T03:21:18;26.05;;;3.90;;
22778;SDS011;11556;51.194;3.800;2023-12-22T03:23:44;29.88;;;4.50;;
22778;SDS011;11556;51.194;3.800;2023-12-22T03:26:10;29.30;;;3.70;;
22778;SDS011;11556;51.194;3.800;2023-12-22T03:28:36;21.17;;;3.75;;
22778;SDS011;11556;51.194;3.800;2023-12-22T03:31:02;23.55;;;3.88;;
22778;SDS011;11556;51.194;3.800;2023-12-22T03:33:28;26.58;;;3.80;;
22778;SDS011;11556;51.194;3.800;2023-12-22T03:35:53;26.98;;;4.15;;
22778;SDS011;11556;51.194;3.800;2023-12-22T03:38:19;30.40;;;4.32;;
22778;SDS011;11556;51.194;3.800;2023-12-22T03:40:45;29.67;;;5.22;;
22778;SDS011;11556;51.194;3.800;2023-12-22T03:43:10;31.80;;;5.00;;
22778;SDS011;11556;51.194;3.800;2023-12-22T03:45:36;33.78;;;4.43;;
22778;SDS011;11556;51.194;3.800;2023-12-22T03:48:01;32.00;;;5.07;;
22778;SDS011;11556;51.194;3.800;2023-12-22T03:50:27;35.35;;;4.55;;
22778;SDS011;11556;51.194;3.800;2023-12-22T03:52:53;35.78;;;5.13;;
22778;SDS011;11556;51.194;3.800;2023-12-22T03:55:19;32.78;;;4.70;;
22778;SDS011;11556;51.194;3.800;2023-12-22T03:57:44;36.08;;;5.15;;
22778;SDS011;11556;51.194;3.800;2023-12-22T04:00:10;35.35;;;4.53;;
22778;SDS011;11556;51.194;3.800;2023-12-22T04:02:36;34.55;;;5.05;;
22778;SDS011;11556;51.194;3.800;2023-12-22T04:05:02;35.88;;;4.80;;
22778;SDS011;11556;51.194;3.800;2023-12-22T04:07:27;35.50;;;6.18;;
22778;SDS011;11556;51.194;3.800;2023-12-22T04:09:53;31.50;;;4.65;;
22778;SDS011;11556;51.194;3.800;2023-12-22T04:12:19;36.30;;;5.07;;
22778;SDS011;11556;51.194;3.800;2023-12-22T04:14:44;36.67;;;5.07;;
22778;SDS011;11556;51.194;3.800;2023-12-22T04:17:10;34.10;;;5.30;;
22778;SDS011;11556;51.194;3.800;2023-12-22T04:19:36;33.88;;;5.30;;
22778;SDS011;11556;51.194;3.800;2023-12-22T04:22:01;39.03;;;6.20;;
22778;SDS011;11556;51.194;3.800;2023-12-22T04:24:27;35.88;;;4.85;;
22778;SDS011;11556;51.194;3.800;2023-12-22T04:26:53;40.35;;;5.60;;
22778;SDS011;11556;51.194;3.800;2023-12-22T04:29:19;24.75;;;4.82;;
22778;SDS011;11556;51.194;3.800;2023-12-22T04:31:44;36.53;;;5.75;;
22778;SDS011;11556;51.194;3.800;2023-12-22T04:34:12;37.88;;;5.40;;
22778;SDS011;11556;51.194;3.800;2023-12-22T04:36:39;36.40;;;5.00;;
22778;SDS011;11556;51.194;3.800;2023-12-22T04:39:05;43.05;;;6.60;;
22778;SDS011;11556;51.194;3.800;2023-12-22T04:41:30;36.97;;;5.15;;
22778;SDS011;11556;51.194;3.800;2023-12-22T04:43:56;38.97;;;5.07;;
22778;SDS011;11556;51.194;3.800;2023-12-22T04:46:21;38.42;;;5.30;;
22778;SDS011;11556;51.194;3.800;2023-12-22T04:48:47;34.80;;;5.53;;
22778;SDS011;11556;51.194;3.800;2023-12-22T04:51:13;30.25;;;4.75;;
22778;SDS011;11556;51.194;3.800;2023-12-22T04:53:38;29.70;;;4.57;;
22778;SDS011;11556;51.194;3.800;2023-12-22T04:56:04;29.90;;;4.53;;
22778;SDS011;11556;51.194;3.800;2023-12-22T04:58:30;29.25;;;4.75;;
22778;SDS011;11556;51.194;3.800;2023-12-22T05:00:55;32.75;;;5.50;;
22778;SDS011;11556;51.194;3.800;2023-12-22T05:03:21;30.30;;;4.63;;
22778;SDS011;11556;51.194;3.800;2023-12-22T05:05:47;39.05;;;5.38;;
22778;SDS011;11556;51.194;3.800;2023-12-22T05:08:12;31.95;;;5.78;;
22778;SDS011;11556;51.194;3.800;2023-12-22T05:10:38;36.22;;;5.35;;
22778;SDS011;11556;51.194;3.800;2023-12-22T05:13:04;35.85;;;4.80;;
22778;SDS011;11556;51.194;3.800;2023-12-22T05:15:29;35.92;;;4.97;;
22778;SDS011;11556;51.194;3.800;2023-12-22T05:17:55;30.95;;;5.55;;
22778;SDS011;11556;51.194;3.800;2023-12-22T05:20:20;31.02;;;4.38;;
22778;SDS011;11556;51.194;3.800;2023-12-22T05:22:46;27.02;;;4.03;;
22778;SDS011;11556;51.194;3.800;2023-12-22T05:25:15;36.28;;;5.90;;
22778;SDS011;11556;51.194;3.800;2023-12-22T05:27:41;28.88;;;4.60;;
22778;SDS011;11556;51.194;3.800;2023-12-22T05:30:08;28.10;;;4.32;;
22778;SDS011;11556;51.194;3.800;2023-12-22T05:32:34;29.77;;;4.22;;
22778;SDS011;11556;51.194;3.800;2023-12-22T05:34:59;25.77;;;4.43;;
22778;SDS011;11556;51.194;3.800;2023-12-22T05:37:25;30.83;;;4.60;;
22778;SDS011;11556;51.194;3.800;2023-12-22T05:39:51;30.45;;;4.55;;
22778;SDS011;11556;51.194;3.800;2023-12-22T05:42:16;23.02;;;3.90;;
22778;SDS011;11556;51.194;3.800;2023-12-22T05:44:42;23.80;;;3.75;;
22778;SDS011;11556;51.194;3.800;2023-12-22T05:47:08;32.53;;;3.53;;
22778;SDS011;11556;51.194;3.800;2023-12-22T05:49:35;25.70;;;4.25;;
22778;SDS011;11556;51.194;3.800;2023-12-22T05:52:04;26.10;;;3.45;;
22778;SDS011;11556;51.194;3.800;2023-12-22T05:54:30;23.75;;;3.58;;
22778;SDS011;11556;51.194;3.800;2023-12-22T05:56:55;16.13;;;2.63;;
22778;SDS011;11556;51.194;3.800;2023-12-22T05:59:21;20.80;;;3.35;;
22778;SDS011;11556;51.194;3.800;2023-12-22T06:01:46;17.85;;;3.63;;
22778;SDS011;11556;51.194;3.800;2023-12-22T06:04:12;16.60;;;3.00;;
22778;SDS011;11556;51.194;3.800;2023-12-22T06:06:38;17.27;;;2.50;;
22778;SDS011;11556;51.194;3.800;2023-12-22T06:09:04;19.00;;;2.88;;
22778;SDS011;11556;51.194;3.800;2023-12-22T06:11:31;20.05;;;2.78;;
22778;SDS011;11556;51.194;3.800;2023-12-22T06:13:57;16.25;;;2.47;;
22778;SDS011;11556;51.194;3.800;2023-12-22T06:16:22;17.83;;;2.55;;
22778;SDS011;11556;51.194;3.800;2023-12-22T06:18:48;18.30;;;2.55;;
22778;SDS011;11556;51.194;3.800;2023-12-22T06:21:13;25.67;;;3.20;;
22778;SDS011;11556;51.194;3.800;2023-12-22T06:23:40;15.63;;;2.38;;
22778;SDS011;11556;51.194;3.800;2023-12-22T06:26:09;16.75;;;2.95;;
22778;SDS011;11556;51.194;3.800;2023-12-22T06:28:36;10.30;;;2.30;;
22778;SDS011;11556;51.194;3.800;2023-12-22T06:31:03;15.75;;;2.63;;
22778;SDS011;11556;51.194;3.800;2023-12-22T06:33:29;20.25;;;2.72;;
22778;SDS011;11556;51.194;3.800;2023-12-22T06:35:55;13.55;;;2.35;;
22778;SDS011;11556;51.194;3.800;2023-12-22T06:38:21;18.33;;;3.08;;
22778;SDS011;11556;51.194;3.800;2023-12-22T06:40:46;28.25;;;3.00;;
22778;SDS011;11556;51.194;3.800;2023-12-22T06:43:12;23.90;;;3.80;;
22778;SDS011;11556;51.194;3.800;2023-12-22T06:45:39;23.95;;;3.30;;
22778;SDS011;11556;51.194;3.800;2023-12-22T06:48:06;22.90;;;3.65;;
22778;SDS011;11556;51.194;3.800;2023-12-22T06:50:32;14.98;;;2.92;;
22778;SDS011;11556;51.194;3.800;2023-12-22T06:52:57;22.52;;;3.20;;
22778;SDS011;11556;51.194;3.800;2023-12-22T06:55:23;23.80;;;3.45;;
22778;SDS011;11556;51.194;3.800;2023-12-22T06:57:49;25.67;;;3.42;;
22778;SDS011;11556;51.194;3.800;2023-12-22T07:00:15;20.42;;;2.97;;
22778;SDS011;11556;51.194;3.800;2023-12-22T07:02:41;18.85;;;2.75;;
22778;SDS011;11556;51.194;3.800;2023-12-22T07:07:47;23.83;;;2.88;;
22778;SDS011;11556;51.194;3.800;2023-12-22T07:10:13;20.23;;;2.70;;
22778;SDS011;11556;51.194;3.800;2023-12-22T07:12:39;19.67;;;2.35;;
22778;SDS011;11556;51.194;3.800;2023-12-22T07:15:07;21.17;;;2.60;;
22778;SDS011;11556;51.194;3.800;2023-12-22T07:17:33;25.17;;;2.72;;
22778;SDS011;11556;51.194;3.800;2023-12-22T07:19:59;14.18;;;2.30;;
22778;SDS011;11556;51.194;3.800;2023-12-22T07:22:28;18.77;;;2.95;;
22778;SDS011;11556;51.194;3.800;2023-12-22T07:24:54;9.80;;;1.90;;
22778;SDS011;11556;51.194;3.800;2023-12-22T07:27:20;8.18;;;1.80;;
22778;SDS011;11556;51.194;3.800;2023-12-22T07:29:46;11.30;;;1.92;;
22778;SDS011;11556;51.194;3.800;2023-12-22T07:32:12;10.43;;;1.73;;
22778;SDS011;11556;51.194;3.800;2023-12-22T07:34:38;12.27;;;2.22;;
22778;SDS011;11556;51.194;3.800;2023-12-22T07:37:03;8.13;;;1.95;;
22778;SDS011;11556;51.194;3.800;2023-12-22T07:39:32;8.60;;;1.75;;
22778;SDS011;11556;51.194;3.800;2023-12-22T07:41:57;10.88;;;1.77;;
22778;SDS011;11556;51.194;3.800;2023-12-22T07:44:23;6.28;;;1.60;;
22778;SDS011;11556;51.194;3.800;2023-12-22T07:46:55;8.70;;;1.60;;
22778;SDS011;11556;51.194;3.800;2023-12-22T07:49:24;5.68;;;1.50;;
22778;SDS011;11556;51.194;3.800;2023-12-22T07:51:51;6.45;;;1.50;;
22778;SDS011;11556;51.194;3.800;2023-12-22T07:54:17;3.67;;;1.30;;
22778;SDS011;11556;51.194;3.800;2023-12-22T07:56:43;8.75;;;1.52;;
22778;SDS011;11556;51.194;3.800;2023-12-22T07:59:09;7.07;;;1.55;;
22778;SDS011;11556;51.194;3.800;2023-12-22T08:01:34;3.35;;;1.85;;
22778;SDS011;11556;51.194;3.800;2023-12-22T08:04:00;3.83;;;1.60;;
22778;SDS011;11556;51.194;3.800;2023-12-22T08:06:26;5.05;;;1.80;;
22778;SDS011;11556;51.194;3.800;2023-12-22T08:08:51;6.72;;;1.98;;
22778;SDS011;11556;51.194;3.800;2023-12-22T08:11:17;7.93;;;2.00;;
22778;SDS011;11556;51.194;3.800;2023-12-22T08:13:44;9.35;;;2.13;;
22778;SDS011;11556;51.194;3.800;2023-12-22T08:16:10;6.75;;;2.03;;
22778;SDS011;11556;51.194;3.800;2023-12-22T08:18:36;5.60;;;1.95;;
22778;SDS011;11556;51.194;3.800;2023-12-22T08:21:01;6.88;;;1.80;;
22778;SDS011;11556;51.194;3.800;2023-12-22T08:23:27;9.10;;;2.10;;
22778;SDS011;11556;51.194;3.800;2023-12-22T08:25:54;11.52;;;2.10;;
22778;SDS011;11556;51.194;3.800;2023-12-22T08:28:19;9.95;;;1.80;;
22778;SDS011;11556;51.194;3.800;2023-12-22T08:30:45;12.40;;;2.28;;
22778;SDS011;11556;51.194;3.800;2023-12-22T08:33:10;13.48;;;2.20;;
22778;SDS011;11556;51.194;3.800;2023-12-22T08:35:36;8.35;;;2.05;;
22778;SDS011;11556;51.194;3.800;2023-12-22T08:38:02;13.73;;;2.30;;
22778;SDS011;11556;51.194;3.800;2023-12-22T08:40:27;12.15;;;1.88;;
22778;SDS011;11556;51.194;3.800;2023-12-22T08:42:53;11.70;;;1.88;;
22778;SDS011;11556;51.194;3.800;2023-12-22T08:45:25;11.48;;;2.28;;
22778;SDS011;11556;51.194;3.800;2023-12-22T08:47:53;7.57;;;1.77;;
22778;SDS011;11556;51.194;3.800;2023-12-22T08:50:20;17.95;;;2.40;;
22778;SDS011;11556;51.194;3.800;2023-12-22T08:52:46;12.13;;;2.15;;
22778;SDS011;11556;51.194;3.800;2023-12-22T08:55:12;12.32;;;2.00;;
22778;SDS011;11556;51.194;3.800;2023-12-22T08:57:37;12.07;;;1.70;;
22778;SDS011;11556;51.194;3.800;2023-12-22T09:00:04;9.82;;;1.90;;
22778;SDS011;11556;51.194;3.800;2023-12-22T09:02:31;10.55;;;1.90;;
22778;SDS011;11556;51.194;3.800;2023-12-22T09:04:56;6.82;;;1.60;;
22778;SDS011;11556;51.194;3.800;2023-12-22T09:07:22;7.80;;;1.83;;
22778;SDS011;11556;51.194;3.800;2023-12-22T09:09:49;13.10;;;2.60;;
22778;SDS011;11556;51.194;3.800;2023-12-22T09:12:15;15.93;;;1.70;;
22778;SDS011;11556;51.194;3.800;2023-12-22T09:14:41;12.25;;;1.73;;
22778;SDS011;11556;51.194;3.800;2023-12-22T09:17:06;15.60;;;2.00;;
22778;SDS011;11556;51.194;3.800;2023-12-22T09:19:32;7.13;;;1.33;;
22778;SDS011;11556;51.194;3.800;2023-12-22T09:22:03;14.77;;;1.80;;
22778;SDS011;11556;51.194;3.800;2023-12-22T09:24:29;8.38;;;1.38;;
22778;SDS011;11556;51.194;3.800;2023-12-22T09:26:55;9.20;;;1.33;;
22778;SDS011;11556;51.194;3.800;2023-12-22T09:31:53;8.90;;;1.30;;
22778;SDS011;11556;51.194;3.800;2023-12-22T09:34:18;6.22;;;1.13;;
22778;SDS011;11556;51.194;3.800;2023-12-22T09:36:44;9.27;;;1.15;;
22778;SDS011;11556;51.194;3.800;2023-12-22T09:39:09;6.53;;;1.23;;
22778;SDS011;11556;51.194;3.800;2023-12-22T09:41:36;5.85;;;1.52;;
22778;SDS011;11556;51.194;3.800;2023-12-22T09:44:02;9.18;;;1.38;;
22778;SDS011;11556;51.194;3.800;2023-12-22T09:46:30;9.43;;;1.30;;
22778;SDS011;11556;51.194;3.800;2023-12-22T09:48:56;6.80;;;1.40;;
22778;SDS011;11556;51.194;3.800;2023-12-22T09:51:22;7.18;;;1.17;;
22778;SDS011;11556;51.194;3.800;2023-12-22T09:53:48;11.82;;;1.25;;
22778;SDS011;11556;51.194;3.800;2023-12-22T09:56:15;5.57;;;0.93;;
22778;SDS011;11556;51.194;3.800;2023-12-22T09:58:43;13.50;;;1.50;;
22778;SDS011;11556;51.194;3.800;2023-12-22T10:01:10;11.98;;;1.30;;
22778;SDS011;11556;51.194;3.800;2023-12-22T10:03:36;6.25;;;1.20;;
22778;SDS011;11556;51.194;3.800;2023-12-22T10:06:03;7.40;;;1.20;;
22778;SDS011;11556;51.194;3.800;2023-12-22T10:08:29;8.95;;;1.20;;
22778;SDS011;11556;51.194;3.800;2023-12-22T10:10:55;6.28;;;1.20;;
22778;SDS011;11556;51.194;3.800;2023-12-22T10:13:22;7.53;;;1.05;;
22778;SDS011;11556;51.194;3.800;2023-12-22T10:15:47;5.50;;;1.00;;
22778;SDS011;11556;51.194;3.800;2023-12-22T10:18:13;7.47;;;1.20;;
22778;SDS011;11556;51.194;3.800;2023-12-22T10:20:39;5.82;;;1.00;;
22778;SDS011;11556;51.194;3.800;2023-12-22T10:23:05;6.93;;;1.10;;
22778;SDS011;11556;51.194;3.800;2023-12-22T10:25:31;7.88;;;1.02;;
22778;SDS011;11556;51.194;3.800;2023-12-22T10:27:57;5.68;;;1.00;;
22778;SDS011;11556;51.194;3.800;2023-12-22T10:30:23;9.90;;;1.77;;
22778;SDS011;11556;51.194;3.800;2023-12-22T10:32:52;7.50;;;1.10;;
22778;SDS011;11556;51.194;3.800;2023-12-22T10:35:21;4.20;;;0.93;;
22778;SDS011;11556;51.194;3.800;2023-12-22T10:37:47;6.35;;;0.80;;
22778;SDS011;11556;51.194;3.800;2023-12-22T10:40:16;6.05;;;0.90;;
22778;SDS011;11556;51.194;3.800;2023-12-22T10:42:42;5.28;;;1.15;;
22778;SDS011;11556;51.194;3.800;2023-12-22T10:45:08;8.43;;;1.20;;
22778;SDS011;11556;51.194;3.800;2023-12-22T10:47:34;9.68;;;1.38;;
22778;SDS011;11556;51.194;3.800;2023-12-22T10:50:02;5.57;;;1.35;;
22778;SDS011;11556;51.194;3.800;2023-12-22T10:52:31;10.82;;;1.33;;
22778;SDS011;11556;51.194;3.800;2023-12-22T10:54:57;6.55;;;1.20;;
22778;SDS011;11556;51.194;3.800;2023-12-22T10:57:23;10.68;;;1.60;;
22778;SDS011;11556;51.194;3.800;2023-12-22T10:59:49;7.70;;;1.05;;
22778;SDS011;11556;51.194;3.800;2023-12-22T11:02:17;8.70;;;1.40;;
22778;SDS011;11556;51.194;3.800;2023-12-22T11:04:57;5.85;;;0.95;;
22778;SDS011;11556;51.194;3.800;2023-12-22T11:09:53;5.85;;;0.90;;
22778;SDS011;11556;51.194;3.800;2023-12-22T11:12:23;5.28;;;1.70;;
22778;SDS011;11556;51.194;3.800;2023-12-22T11:14:49;5.18;;;0.90;;
22778;SDS011;11556;51.194;3.800;2023-12-22T11:17:21;7.63;;;0.80;;
22778;SDS011;11556;51.194;3.800;2023-12-22T11:19:50;6.43;;;1.00;;
22778;SDS011;11556;51.194;3.800;2023-12-22T11:22:19;5.60;;;1.08;;
22778;SDS011;11556;51.194;3.800;2023-12-22T11:24:46;10.07;;;1.27;;
22778;SDS011;11556;51.194;3.800;2023-12-22T11:27:18;7.07;;;1.10;;
22778;SDS011;11556;51.194;3.800;2023-12-22T11:29:48;7.93;;;1.25;;
22778;SDS011;11556;51.194;3.800;2023-12-22T11:32:16;7.55;;;1.23;;
22778;SDS011;11556;51.194;3.800;2023-12-22T11:34:43;7.25;;;1.40;;
22778;SDS011;11556;51.194;3.800;2023-12-22T11:37:11;6.50;;;0.85;;
22778;SDS011;11556;51.194;3.800;2023-12-22T11:39:38;13.32;;;1.67;;
22778;SDS011;11556;51.194;3.800;2023-12-22T11:42:04;9.57;;;1.10;;
22778;SDS011;11556;51.194;3.800;2023-12-22T11:44:41;11.10;;;1.27;;
22778;SDS011;11556;51.194;3.800;2023-12-22T11:47:07;8.85;;;1.35;;
22778;SDS011;11556;51.194;3.800;2023-12-22T11:49:34;8.73;;;1.50;;
22778;SDS011;11556;51.194;3.800;2023-12-22T12:00:03;6.43;;;1.05;;
22778;SDS011;11556;51.194;3.800;2023-12-22T12:02:34;6.80;;;1.30;;
22778;SDS011;11556;51.194;3.800;2023-12-22T12:05:01;5.90;;;1.00;;
22778;SDS011;11556;51.194;3.800;2023-12-22T12:13:06;7.95;;;1.10;;
22778;SDS011;11556;51.194;3.800;2023-12-22T12:17:59;5.90;;;1.20;;
22778;SDS011;11556;51.194;3.800;2023-12-22T12:20:25;9.15;;;1.65;;
22778;SDS011;11556;51.194;3.800;2023-12-22T12:22:52;12.27;;;1.50;;
22778;SDS011;11556;51.194;3.800;2023-12-22T12:25:19;8.77;;;1.33;;
22778;SDS011;11556;51.194;3.800;2023-12-22T12:30:30;7.75;;;1.23;;
22778;SDS011;11556;51.194;3.800;2023-12-22T12:32:58;6.25;;;1.05;;
22778;SDS011;11556;51.194;3.800;2023-12-22T12:35:30;7.75;;;1.38;;
22778;SDS011;11556;51.194;3.800;2023-12-22T12:37:57;11.88;;;1.63;;
22778;SDS011;11556;51.194;3.800;2023-12-22T12:40:23;6.78;;;1.40;;
22778;SDS011;11556;51.194;3.800;2023-12-22T12:42:50;7.63;;;1.42;;
22778;SDS011;11556;51.194;3.800;2023-12-22T12:45:15;10.02;;;1.20;;
22778;SDS011;11556;51.194;3.800;2023-12-22T12:48:00;6.45;;;1.25;;
22778;SDS011;11556;51.194;3.800;2023-12-22T12:50:27;11.60;;;1.95;;
22778;SDS011;11556;51.194;3.800;2023-12-22T12:52:54;13.25;;;2.13;;
22778;SDS011;11556;51.194;3.800;2023-12-22T12:55:21;8.68;;;1.45;;
22778;SDS011;11556;51.194;3.800;2023-12-22T12:57:50;8.65;;;1.38;;
22778;SDS011;11556;51.194;3.800;2023-12-22T13:00:23;13.50;;;1.90;;
22778;SDS011;11556;51.194;3.800;2023-12-22T13:02:50;8.88;;;1.67;;
22778;SDS011;11556;51.194;3.800;2023-12-22T13:05:22;10.43;;;1.88;;
22778;SDS011;11556;51.194;3.800;2023-12-22T13:07:48;7.80;;;1.45;;
22778;SDS011;11556;51.194;3.800;2023-12-22T13:12:46;11.75;;;1.42;;
22778;SDS011;11556;51.194;3.800;2023-12-22T13:15:11;8.35;;;1.30;;
22778;SDS011;11556;51.194;3.800;2023-12-22T13:17:37;9.00;;;1.80;;
22778;SDS011;11556;51.194;3.800;2023-12-22T13:20:03;11.50;;;2.72;;
22778;SDS011;11556;51.194;3.800;2023-12-22T13:22:29;9.50;;;1.40;;
22778;SDS011;11556;51.194;3.800;2023-12-22T13:24:55;9.30;;;1.70;;
22778;SDS011;11556;51.194;3.800;2023-12-22T13:27:22;11.82;;;1.83;;
22778;SDS011;11556;51.194;3.800;2023-12-22T13:29:48;7.93;;;1.48;;
22778;SDS011;11556;51.194;3.800;2023-12-22T13:32:17;8.77;;;1.50;;
22778;SDS011;11556;51.194;3.800;2023-12-22T13:34:50;7.38;;;1.40;;
22778;SDS011;11556;51.194;3.800;2023-12-22T13:37:18;8.43;;;1.50;;
22778;SDS011;11556;51.194;3.800;2023-12-22T13:39:44;7.55;;;1.52;;
22778;SDS011;11556;51.194;3.800;2023-12-22T13:42:15;9.00;;;1.45;;
22778;SDS011;11556;51.194;3.800;2023-12-22T13:44:46;12.35;;;1.75;;
22778;SDS011;11556;51.194;3.800;2023-12-22T13:47:14;11.85;;;1.83;;
22778;SDS011;11556;51.194;3.800;2023-12-22T13:49:41;8.32;;;1.40;;
22778;SDS011;11556;51.194;3.800;2023-12-22T13:52:08;9.95;;;1.70;;
22778;SDS011;11556;51.194;3.800;2023-12-22T13:55:00;9.80;;;1.65;;
22778;SDS011;11556;51.194;3.800;2023-12-22T13:57:27;11.00;;;2.55;;
22778;SDS011;11556;51.194;3.800;2023-12-22T13:59:53;9.07;;;2.05;;
22778;SDS011;11556;51.194;3.800;2023-12-22T14:02:23;8.15;;;1.58;;
22778;SDS011;11556;51.194;3.800;2023-12-22T14:04:49;4.97;;;0.98;;
22778;SDS011;11556;51.194;3.800;2023-12-22T14:07:16;9.75;;;1.67;;
22778;SDS011;11556;51.194;3.800;2023-12-22T14:09:41;7.95;;;1.73;;
22778;SDS011;11556;51.194;3.800;2023-12-22T14:12:07;14.63;;;1.85;;
22778;SDS011;11556;51.194;3.800;2023-12-22T14:14:33;7.45;;;1.25;;
22778;SDS011;11556;51.194;3.800;2023-12-22T14:16:59;13.00;;;1.65;;
22778;SDS011;11556;51.194;3.800;2023-12-22T14:19:24;10.10;;;1.60;;
22778;SDS011;11556;51.194;3.800;2023-12-22T14:21:50;8.35;;;1.45;;
22778;SDS011;11556;51.194;3.800;2023-12-22T14:24:15;5.72;;;1.58;;
22778;SDS011;11556;51.194;3.800;2023-12-22T14:26:54;9.00;;;1.58;;
22778;SDS011;11556;51.194;3.800;2023-12-22T14:29:20;9.18;;;1.40;;
22778;SDS011;11556;51.194;3.800;2023-12-22T14:31:48;8.18;;;0.90;;
22778;SDS011;11556;51.194;3.800;2023-12-22T14:34:14;7.25;;;1.30;;
22778;SDS011;11556;51.194;3.800;2023-12-22T14:36:40;10.15;;;1.88;;
22778;SDS011;11556;51.194;3.800;2023-12-22T14:39:06;9.95;;;1.30;;
22778;SDS011;11556;51.194;3.800;2023-12-22T14:41:35;8.00;;;1.58;;
22778;SDS011;11556;51.194;3.800;2023-12-22T14:44:00;9.07;;;1.40;;
22778;SDS011;11556;51.194;3.800;2023-12-22T14:46:26;12.43;;;1.60;;
22778;SDS011;11556;51.194;3.800;2023-12-22T14:48:52;13.13;;;1.63;;
22778;SDS011;11556;51.194;3.800;2023-12-22T14:51:19;11.70;;;1.45;;
22778;SDS011;11556;51.194;3.800;2023-12-22T14:53:44;9.80;;;1.60;;
22778;SDS011;11556;51.194;3.800;2023-12-22T14:56:10;10.45;;;1.92;;
22778;SDS011;11556;51.194;3.800;2023-12-22T14:58:37;6.25;;;1.63;;
22778;SDS011;11556;51.194;3.800;2023-12-22T15:01:03;9.00;;;1.42;;
22778;SDS011;11556;51.194;3.800;2023-12-22T15:03:28;8.40;;;1.40;;